Aérodrome :
LOGIN :

S'inscrire | Disclaimer

   EN    FR    IT 

 










Légende :    VFR   VFR Marginal   IFR   IFR Intensif   IFR Très Intensif
Visi : 
Plafond : 
>= 8 km
>= 3000ft
5 à 8 km
1000 à 3000 ft
1500m à 5 km
500 à 1000 ft
800 à 1500m
200 à 500 ft
< 800m
< 200 ft
Symboles :   Orages  Brouillard  Fortes neiges  Fortes précipitations  Vent > 20 kt
SIGMETs :   Divers  Orages  Givrage  Turbulence  Onde Orograph.  Cendres Volcan.







- Altitude de l'aérodrome : 147 ft
- Code IATA : DUS


EDDL - Düsseldorf Int.

DERNIER METAR :
  • 231820Z 27013KT 9999 OVC019 13/09 Q1023 NOSIG

METARs EXPIRÉS :
  • 231750Z 28012KT 250V310 9999 -DZ OVC020 13/09 Q1023 TEMPO 25015G25KT
  • 231720Z 29012KT 9999 -RA OVC020 13/09 Q1023 TEMPO 25015G25KT
  • 231650Z 29014KT 9999 BKN022 13/09 Q1023 TEMPO 25015G25KT
  • 231620Z 29015KT 9999 OVC022 14/09 Q1023 TEMPO 25015G25KT
  • 231550Z 29012KT 9999 OVC024 14/09 Q1022 TEMPO 25015G25KT

TAF TAF EDDL
Valide du 23 à 18h jusqu'au 25 à 00h UTC


231700Z 2318/2424 26015G25KT 9999 BKN020
BECMG 2318/2321 28011KT
BECMG 2322/2401 BKN012
TEMPO 2401/2408 BKN007
PROB30
TEMPO 2401/2408 29015G25KT
BECMG 2409/2412 BKN025
BECMG 2421/2423 BKN012
Pas de NOTAMs connus pour ce terrain.



MET'MAP, la Météo Aéronautique d'un coup d'oeil ! - Copyright ORBIFLY Décembre 2007 - Disclaimer

ORBIFLY MET'MAP TEAM :

Programmation & Développement : Alexandra Zaïnal
Conception & Développement : Baudouin d'Aumeries
Co-Programmation & Développement : Marc-Olivier Méhu
Soutien technique & logistique : Manuel Goepfert

Contact : metmap@orbifly.com




SOURCES & CREDITS :

   NOAA